Austin/Bergstrom AFB, Texas
Current Conditions -  °F | °C
As of 7:53 PM on Saturday 25 Oct 2014 (Local Time) from KAUS Reporting Station
Clear Clear  
Wind Chill: 71°   Ceiling: Unl
Heat Index: 71°   Visibility: 10mi
Dew Point: 60°   Wind: 3mph
Humidity: 68%   Direction: 180°S
Pressure: 30.08"   Gusts: NA
Location:  30.2°N, 97.68°W
Report Text: KAUS 260053Z 18003KT 10SM CLR 22/16 A3008 RMK AO2 SLP182 T02170156
Loading
Personal Weather Stations






























Interactive Weather Map
Tropical Storm Tracking
New forecast layout! Learn more

10-Day Weather Forecast

Advertisements
Track Severe Weather on mobile